Time;durP1;ratioP1;P1;durP2;ratioP2;P2;SDS_P1;SDS_P2;PMS_P1;PMS_P2;Temp;Humidity;BMP_temperature;BMP_pressure;BME280_temperature;BME280_humidity;BME280_pressure;Samples;Min_cycle;Max_cycle;Signal;HPM_P1;HPM_P2
2024/02/06 00:02:24;;;;;;;;;;;15.30;66.90;;;;;;5012416;28;20411;-74
2024/02/06 00:04:50;;;;;;;;;;;15.30;67.20;;;;;;5012955;28;19921;-74
2024/02/06 00:07:16;;;;;;;;;;;15.30;67.50;;;;;;5013276;28;20276;-74
2024/02/06 00:09:42;;;;;;;;;;;15.30;67.70;;;;;;5012887;28;19917;-74
2024/02/06 00:12:10;;;;;;;;;;;15.20;67.40;;;;;;5012433;28;19916;-74
2024/02/06 00:14:36;;;;;;;;;;;15.30;66.60;;;;;;5012388;28;19913;-74
2024/02/06 00:17:02;;;;;;;;;;;15.20;67.60;;;;;;5012785;28;19917;-74
2024/02/06 00:19:28;;;;;;;;;;;15.20;67.60;;;;;;5012479;28;19952;-74
2024/02/06 00:21:54;;;;;;;;;;;15.20;68.20;;;;;;5012684;28;19960;-73
2024/02/06 00:24:21;;;;;;;;;;;15.30;67.40;;;;;;5012429;28;20012;-74
2024/02/06 00:26:47;;;;;;;;;;;15.20;67.60;;;;;;5012357;28;20359;-73
2024/02/06 00:29:13;;;;;;;;;;;15.20;67.60;;;;;;5012641;28;19955;-73
2024/02/06 00:31:39;;;;;;;;;;;15.20;67.50;;;;;;5012391;28;19916;-74
2024/02/06 00:34:05;;;;;;;;;;;15.20;67.60;;;;;;5012329;28;19955;-74
2024/02/06 00:36:31;;;;;;;;;;;15.20;67.50;;;;;;5012806;28;19960;-73
2024/02/06 00:38:56;;;;;;;;;;;15.20;67.60;;;;;;5012629;28;19916;-73
2024/02/06 00:41:22;;;;;;;;;;;15.30;67.50;;;;;;5012237;28;19956;-73
2024/02/06 00:43:48;;;;;;;;;;;15.30;67.80;;;;;;5015716;28;19937;-73
2024/02/06 00:46:13;;;;;;;;;;;15.10;67.30;;;;;;5016228;28;20317;-74
2024/02/06 00:48:39;;;;;;;;;;;15.10;67.60;;;;;;5016285;28;19916;-74
2024/02/06 00:51:04;;;;;;;;;;;15.20;67.20;;;;;;5014932;28;20268;-73
2024/02/06 00:53:30;;;;;;;;;;;15.20;67.80;;;;;;5016058;28;20462;-74
2024/02/06 00:55:55;;;;;;;;;;;16.40;68.20;;;;;;5016104;28;19920;-74
2024/02/06 00:58:21;;;;;;;;;;;15.10;67.50;;;;;;5015873;28;19909;-74
2024/02/06 01:00:46;;;;;;;;;;;15.20;67.80;;;;;;5015853;28;20343;-74
2024/02/06 01:03:12;;;;;;;;;;;15.20;67.10;;;;;;5016089;28;20048;-74
2024/02/06 01:05:37;;;;;;;;;;;15.10;67.60;;;;;;5015888;28;19949;-74
2024/02/06 01:08:03;;;;;;;;;;;15.20;67.60;;;;;;5015799;28;20049;-74
2024/02/06 01:10:29;;;;;;;;;;;15.10;66.90;;;;;;5015858;28;19917;-74
2024/02/06 01:12:54;;;;;;;;;;;15.10;67.50;;;;;;5015761;28;19910;-74
2024/02/06 01:15:20;;;;;;;;;;;15.10;67.50;;;;;;5015749;28;19910;-74
2024/02/06 01:17:46;;;;;;;;;;;15.10;67.80;;;;;;5015724;28;19913;-74
2024/02/06 01:20:11;;;;;;;;;;;15.10;67.60;;;;;;5015635;28;19968;-73
2024/02/06 01:22:37;;;;;;;;;;;15.10;67.40;;;;;;5015704;28;20368;-74
2024/02/06 01:25:03;;;;;;;;;;;15.10;67.90;;;;;;5015491;28;19925;-74
2024/02/06 01:27:29;;;;;;;;;;;15.10;67.10;;;;;;5015391;28;20390;-74
2024/02/06 01:29:55;;;;;;;;;;;15.10;67.70;;;;;;5015359;28;19909;-74
2024/02/06 01:32:21;;;;;;;;;;;15.00;67.30;;;;;;5015838;28;19909;-73
2024/02/06 01:34:47;;;;;;;;;;;15.10;67.80;;;;;;5015645;28;20012;-74
2024/02/06 01:37:13;;;;;;;;;;;15.10;67.70;;;;;;5015544;28;19910;-73
2024/02/06 01:39:39;;;;;;;;;;;15.10;67.80;;;;;;5015536;28;20268;-74
2024/02/06 01:42:05;;;;;;;;;;;15.10;67.50;;;;;;5015078;28;20011;-74
2024/02/06 01:44:31;;;;;;;;;;;15.00;67.90;;;;;;5015141;28;20376;-73
2024/02/06 01:46:58;;;;;;;;;;;15.30;68.10;;;;;;5015340;28;19933;-74
2024/02/06 01:49:24;;;;;;;;;;;15.10;67.30;;;;;;5015119;28;19914;-73
2024/02/06 01:51:50;;;;;;;;;;;15.10;67.80;;;;;;5015182;28;20003;-73
2024/02/06 01:54:16;;;;;;;;;;;15.10;67.80;;;;;;5013912;28;19921;-74
2024/02/06 01:56:44;;;;;;;;;;;15.00;67.70;;;;;;5015121;28;19963;-74
2024/02/06 01:59:11;;;;;;;;;;;15.00;67.90;;;;;;5015124;28;20018;-74
2024/02/06 02:01:36;;;;;;;;;;;15.00;67.40;;;;;;5015139;28;20024;-74
2024/02/06 02:04:02;;;;;;;;;;;15.10;67.80;;;;;;5014547;28;20000;-74
2024/02/06 02:06:28;;;;;;;;;;;15.20;67.90;;;;;;5014778;28;19909;-74
2024/02/06 02:08:53;;;;;;;;;;;15.00;68.00;;;;;;5014760;28;19996;-74
2024/02/06 02:11:19;;;;;;;;;;;15.10;67.90;;;;;;5014706;28;19909;-74
2024/02/06 02:13:45;;;;;;;;;;;15.00;67.80;;;;;;5014668;28;19917;-73
2024/02/06 02:16:11;;;;;;;;;;;15.00;67.90;;;;;;5014481;28;19933;-73
2024/02/06 02:18:36;;;;;;;;;;;15.10;68.00;;;;;;5014498;28;20379;-73
2024/02/06 02:21:08;;;;;;;;;;;14.80;67.80;;;;;;5014428;28;19917;-73
2024/02/06 02:23:34;;;;;;;;;;;15.00;63.40;;;;;;5014456;28;19972;-73
2024/02/06 02:25:59;;;;;;;;;;;15.00;67.90;;;;;;5014310;28;19913;-73
2024/02/06 02:28:25;;;;;;;;;;;15.10;67.90;;;;;;5015120;28;19909;-73
2024/02/06 02:30:51;;;;;;;;;;;15.10;68.00;;;;;;5014272;28;19952;-73
2024/02/06 02:33:17;;;;;;;;;;;15.00;68.00;;;;;;5014195;28;20011;-73
2024/02/06 02:35:44;;;;;;;;;;;15.00;68.30;;;;;;5014116;28;19916;-73
2024/02/06 02:38:10;;;;;;;;;;;14.90;68.00;;;;;;5014112;28;19948;-73
2024/02/06 02:40:36;;;;;;;;;;;15.00;68.00;;;;;;5014474;28;19947;-73
2024/02/06 02:43:02;;;;;;;;;;;15.20;68.10;;;;;;5014240;28;20092;-73
2024/02/06 02:45:28;;;;;;;;;;;14.90;67.80;;;;;;5013997;28;20368;-73
2024/02/06 02:47:54;;;;;;;;;;;14.90;68.00;;;;;;5014187;28;19914;-73
2024/02/06 02:50:20;;;;;;;;;;;14.90;68.00;;;;;;5014146;28;19916;-74
2024/02/06 02:52:45;;;;;;;;;;;15.00;67.90;;;;;;5014164;28;20008;-72
2024/02/06 02:55:11;;;;;;;;;;;14.90;68.20;;;;;;5014086;28;19910;-73
2024/02/06 02:57:37;;;;;;;;;;;14.90;68.10;;;;;;5014186;28;19932;-73
2024/02/06 03:00:04;;;;;;;;;;;14.80;68.00;;;;;;5013746;28;19918;-73
2024/02/06 03:02:30;;;;;;;;;;;14.90;67.70;;;;;;5013299;28;19918;-73
2024/02/06 03:04:55;;;;;;;;;;;14.90;68.30;;;;;;5013511;28;19960;-73
2024/02/06 03:07:21;;;;;;;;;;;14.90;68.00;;;;;;5013569;28;19913;-73
2024/02/06 03:09:46;;;;;;;;;;;14.90;68.20;;;;;;5013584;28;20364;-73
2024/02/06 03:12:12;;;;;;;;;;;14.90;68.20;;;;;;5013454;28;19924;-73
2024/02/06 03:14:37;;;;;;;;;;;14.90;68.30;;;;;;5013412;28;19987;-73
2024/02/06 03:17:03;;;;;;;;;;;14.90;68.10;;;;;;5013320;28;19915;-73
2024/02/06 03:19:29;;;;;;;;;;;14.90;68.00;;;;;;5013353;28;19916;-73
2024/02/06 03:21:55;;;;;;;;;;;14.80;68.20;;;;;;5013209;28;19967;-73
2024/02/06 03:24:27;;;;;;;;;;;14.90;68.20;;;;;;5013438;28;19910;-73
2024/02/06 03:26:53;;;;;;;;;;;15.00;68.20;;;;;;5020324;28;20461;-74
2024/02/06 03:29:19;;;;;;;;;;;15.00;68.60;;;;;;5013108;28;19909;-73
2024/02/06 03:31:45;;;;;;;;;;;14.90;68.30;;;;;;5013212;28;20272;-73
2024/02/06 03:34:11;;;;;;;;;;;14.90;68.40;;;;;;5013385;28;19916;-73
2024/02/06 03:36:40;;;;;;;;;;;14.90;68.30;;;;;;5013306;28;19917;-73
2024/02/06 03:39:08;;;;;;;;;;;14.90;63.80;;;;;;5013053;28;19940;-73
2024/02/06 03:41:34;;;;;;;;;;;14.80;68.30;;;;;;5013230;28;19979;-73
2024/02/06 03:44:00;;;;;;;;;;;14.90;68.40;;;;;;5012904;28;20464;-73
2024/02/06 03:46:27;;;;;;;;;;;14.90;68.40;;;;;;5012436;28;20390;-73
2024/02/06 03:48:53;;;;;;;;;;;14.90;68.30;;;;;;5013129;28;20335;-73
2024/02/06 03:51:19;;;;;;;;;;;14.80;68.40;;;;;;5013058;28;19932;-73
2024/02/06 03:53:45;;;;;;;;;;;14.80;68.00;;;;;;5013659;28;20017;-73
2024/02/06 03:56:14;;;;;;;;;;;14.90;68.50;;;;;;5012662;28;19937;-73
2024/02/06 03:58:40;;;;;;;;;;;14.80;68.40;;;;;;5013080;28;19909;-73
2024/02/06 04:01:06;;;;;;;;;;;14.90;68.70;;;;;;5012870;28;19913;-73
2024/02/06 04:03:32;;;;;;;;;;;14.90;68.10;;;;;;5012449;28;19921;-73
2024/02/06 04:05:58;;;;;;;;;;;15.20;68.70;;;;;;5012943;28;19960;-73
2024/02/06 04:08:24;;;;;;;;;;;14.80;68.70;;;;;;5012777;28;20376;-73
2024/02/06 04:10:50;;;;;;;;;;;14.80;68.60;;;;;;5012821;28;20283;-73
2024/02/06 04:13:15;;;;;;;;;;;14.90;68.70;;;;;;5012704;28;20333;-73
2024/02/06 04:15:41;;;;;;;;;;;14.80;68.60;;;;;;5012685;28;20384;-73
2024/02/06 04:18:07;;;;;;;;;;;14.90;68.60;;;;;;5011878;28;19909;-73
2024/02/06 04:20:33;;;;;;;;;;;14.80;68.80;;;;;;5012650;28;20304;-73
2024/02/06 04:23:02;;;;;;;;;;;14.80;68.30;;;;;;5012784;28;19940;-73
2024/02/06 04:25:28;;;;;;;;;;;14.80;67.60;;;;;;5012628;28;19995;-73
2024/02/06 04:27:54;;;;;;;;;;;14.80;68.60;;;;;;5012684;28;19910;-74
2024/02/06 04:30:20;;;;;;;;;;;14.80;68.90;;;;;;5012628;28;19916;-73
2024/02/06 04:32:48;;;;;;;;;;;14.80;68.80;;;;;;5012320;28;20000;-73
2024/02/06 04:35:15;;;;;;;;;;;14.80;68.70;;;;;;5012404;28;19955;-73
2024/02/06 04:37:41;;;;;;;;;;;14.70;68.90;;;;;;5012573;28;19945;-73
2024/02/06 04:40:07;;;;;;;;;;;14.90;69.00;;;;;;5012615;28;19909;-73
2024/02/06 04:42:33;;;;;;;;;;;14.80;67.40;;;;;;5012491;28;19924;-73
2024/02/06 04:44:59;;;;;;;;;;;14.80;69.00;;;;;;5012602;28;19909;-73
2024/02/06 04:47:25;;;;;;;;;;;14.80;69.20;;;;;;5012097;28;19910;-73
2024/02/06 04:49:51;;;;;;;;;;;14.80;69.10;;;;;;5012514;28;19916;-73
2024/02/06 04:52:17;;;;;;;;;;;14.80;69.30;;;;;;5012903;28;19956;-73
2024/02/06 04:54:43;;;;;;;;;;;14.80;69.10;;;;;;5012169;28;19945;-73
2024/02/06 04:57:09;;;;;;;;;;;14.90;69.40;;;;;;5012504;28;20291;-73
2024/02/06 04:59:35;;;;;;;;;;;14.90;69.40;;;;;;5012407;28;19917;-73
2024/02/06 05:02:01;;;;;;;;;;;14.80;69.00;;;;;;5012270;28;19952;-73
2024/02/06 05:04:27;;;;;;;;;;;14.90;69.40;;;;;;5011958;28;19980;-73
2024/02/06 05:06:53;;;;;;;;;;;14.90;69.60;;;;;;5012028;28;20036;-73
2024/02/06 05:09:19;;;;;;;;;;;14.90;69.40;;;;;;5012064;28;20012;-73
2024/02/06 05:11:45;;;;;;;;;;;14.80;69.50;;;;;;5011853;28;19909;-73
2024/02/06 05:14:11;;;;;;;;;;;14.80;69.90;;;;;;5012271;28;19916;-72
2024/02/06 05:16:37;;;;;;;;;;;14.90;69.60;;;;;;5011919;28;19910;-74
2024/02/06 05:19:03;;;;;;;;;;;14.80;69.60;;;;;;5012208;28;19909;-73
2024/02/06 05:21:29;;;;;;;;;;;14.90;69.60;;;;;;5011910;28;19910;-73
2024/02/06 05:23:55;;;;;;;;;;;14.90;69.90;;;;;;5012167;28;19924;-73
2024/02/06 05:26:21;;;;;;;;;;;14.90;69.80;;;;;;5011869;28;20348;-73
2024/02/06 05:28:47;;;;;;;;;;;14.90;69.80;;;;;;5013576;28;19917;-73
2024/02/06 05:31:13;;;;;;;;;;;14.90;69.70;;;;;;5015617;28;19956;-73
2024/02/06 05:33:39;;;;;;;;;;;14.90;70.00;;;;;;5015529;28;20265;-73
2024/02/06 05:36:05;;;;;;;;;;;15.00;70.00;;;;;;5015494;28;19963;-73
2024/02/06 05:38:31;;;;;;;;;;;14.90;68.70;;;;;;5015906;28;20292;-72
2024/02/06 05:40:57;;;;;;;;;;;14.90;69.90;;;;;;5015073;28;19916;-72
2024/02/06 05:43:23;;;;;;;;;;;14.90;69.90;;;;;;5015355;28;19924;-75
2024/02/06 05:45:49;;;;;;;;;;;14.90;70.00;;;;;;5015328;28;20351;-75
2024/02/06 05:48:14;;;;;;;;;;;14.90;69.70;;;;;;5015141;28;19933;-75
2024/02/06 05:50:40;;;;;;;;;;;14.90;70.00;;;;;;5014998;28;19944;-73
2024/02/06 05:53:05;;;;;;;;;;;14.90;69.90;;;;;;5014986;28;19920;-73
2024/02/06 05:55:31;;;;;;;;;;;14.90;69.90;;;;;;5014807;28;19910;-72
2024/02/06 05:57:57;;;;;;;;;;;14.90;70.20;;;;;;5014669;28;19921;-73
2024/02/06 06:00:26;;;;;;;;;;;14.90;70.20;;;;;;5015015;28;19909;-73
2024/02/06 06:02:52;;;;;;;;;;;14.80;69.50;;;;;;5014279;28;19953;-74
2024/02/06 06:05:18;;;;;;;;;;;14.80;70.20;;;;;;5014587;28;19953;-74
2024/02/06 06:07:43;;;;;;;;;;;14.80;70.40;;;;;;5015062;28;19909;-73
2024/02/06 06:10:09;;;;;;;;;;;14.90;70.20;;;;;;5013336;28;19909;-74
2024/02/06 06:12:34;;;;;;;;;;;14.90;69.90;;;;;;5014555;28;19971;-74
2024/02/06 06:15:00;;;;;;;;;;;14.90;70.10;;;;;;5014891;28;19956;-73
2024/02/06 06:17:26;;;;;;;;;;;14.90;69.80;;;;;;5014798;28;19913;-74
2024/02/06 06:19:52;;;;;;;;;;;14.90;70.40;;;;;;5014820;28;20417;-74
2024/02/06 06:22:18;;;;;;;;;;;15.00;70.30;;;;;;5014419;28;19925;-73
2024/02/06 06:24:45;;;;;;;;;;;14.70;70.10;;;;;;5014364;28;19909;-74
2024/02/06 06:27:11;;;;;;;;;;;14.80;70.20;;;;;;5014732;28;19916;-73
2024/02/06 06:29:37;;;;;;;;;;;15.00;70.60;;;;;;5014610;28;19910;-74
2024/02/06 06:32:03;;;;;;;;;;;15.00;70.50;;;;;;5014512;28;19971;-73
2024/02/06 06:34:32;;;;;;;;;;;15.10;69.30;;;;;;5014491;28;19916;-73
2024/02/06 06:36:58;;;;;;;;;;;15.00;66.10;;;;;;5014044;28;19988;-73
2024/02/06 06:39:24;;;;;;;;;;;15.10;70.50;;;;;;5013880;28;20028;-74
2024/02/06 06:41:49;;;;;;;;;;;15.00;70.50;;;;;;5013533;28;19909;-74
2024/02/06 06:44:15;;;;;;;;;;;15.00;70.40;;;;;;5014332;28;19910;-73
2024/02/06 06:46:41;;;;;;;;;;;15.00;70.40;;;;;;5014285;28;19916;-74
2024/02/06 06:49:06;;;;;;;;;;;15.10;70.50;;;;;;5013893;28;19953;-73
2024/02/06 06:51:32;;;;;;;;;;;15.00;70.70;;;;;;5013865;28;19910;-73
2024/02/06 06:53:57;;;;;;;;;;;15.20;70.70;;;;;;5013760;28;19917;-73
2024/02/06 06:56:23;;;;;;;;;;;15.00;70.80;;;;;;5013756;28;19996;-72
2024/02/06 06:58:48;;;;;;;;;;;15.00;70.80;;;;;;5013801;28;19955;-73
2024/02/06 07:01:14;;;;;;;;;;;15.10;71.00;;;;;;5013610;28;19909;-73
2024/02/06 07:03:40;;;;;;;;;;;15.10;70.70;;;;;;5013931;28;19922;-73
2024/02/06 07:06:09;;;;;;;;;;;15.00;71.20;;;;;;5013829;28;20378;-73
2024/02/06 07:08:35;;;;;;;;;;;15.10;68.20;;;;;;5013612;28;19956;-74
2024/02/06 07:11:01;;;;;;;;;;;15.10;71.30;;;;;;5013763;28;19910;-73
2024/02/06 07:13:28;;;;;;;;;;;15.10;71.00;;;;;;5013843;28;19916;-74
2024/02/06 07:15:54;;;;;;;;;;;15.10;71.30;;;;;;5013702;28;19909;-74
2024/02/06 07:18:20;;;;;;;;;;;15.20;71.30;;;;;;5013801;28;20376;-74
2024/02/06 07:20:46;;;;;;;;;;;15.10;71.00;;;;;;5013438;28;19920;-73
2024/02/06 07:23:12;;;;;;;;;;;15.20;71.00;;;;;;5013499;28;20265;-73
2024/02/06 07:25:38;;;;;;;;;;;15.20;71.00;;;;;;5013654;28;20000;-73
2024/02/06 07:28:06;;;;;;;;;;;15.20;71.10;;;;;;5013304;28;20409;-73
2024/02/06 07:30:32;;;;;;;;;;;15.20;67.60;;;;;;5013580;28;20376;-74
2024/02/06 07:32:58;;;;;;;;;;;15.50;71.40;;;;;;5014085;28;19945;-74
2024/02/06 07:35:24;;;;;;;;;;;15.30;71.10;;;;;;5013114;28;19909;-74
2024/02/06 07:37:50;;;;;;;;;;;15.30;70.90;;;;;;5013368;28;19909;-73
2024/02/06 07:40:16;;;;;;;;;;;15.30;70.80;;;;;;5013280;28;19968;-74
2024/02/06 07:42:43;;;;;;;;;;;15.30;71.00;;;;;;5012986;28;20291;-81
2024/02/06 07:45:09;;;;;;;;;;;15.40;70.90;;;;;;5013012;28;20368;-74
2024/02/06 07:47:35;;;;;;;;;;;15.30;70.70;;;;;;5013238;28;20000;-74
2024/02/06 07:50:02;;;;;;;;;;;15.40;71.00;;;;;;5013195;28;19910;-77
2024/02/06 07:52:28;;;;;;;;;;;14.90;70.70;;;;;;5013121;28;20253;-74
2024/02/06 07:54:54;;;;;;;;;;;15.50;70.70;;;;;;5012907;28;19917;-77
2024/02/06 07:57:21;;;;;;;;;;;15.40;70.70;;;;;;5013024;28;19909;-75
2024/02/06 07:59:46;;;;;;;;;;;15.50;70.60;;;;;;5012838;28;19913;-76
2024/02/06 08:02:12;;;;;;;;;;;15.50;70.30;;;;;;5013170;28;20016;-76
2024/02/06 08:04:37;;;;;;;;;;;15.50;70.60;;;;;;5012542;28;20088;-77
2024/02/06 08:07:03;;;;;;;;;;;15.40;70.90;;;;;;5012554;28;20392;-77
2024/02/06 08:09:29;;;;;;;;;;;15.40;69.80;;;;;;5012373;28;19909;-73
2024/02/06 08:11:55;;;;;;;;;;;15.80;70.80;;;;;;5012870;28;19920;-78
2024/02/06 08:14:20;;;;;;;;;;;15.50;70.70;;;;;;5012439;28;20310;-77
2024/02/06 08:16:47;;;;;;;;;;;15.50;70.70;;;;;;5012600;28;19998;-77
2024/02/06 08:19:13;;;;;;;;;;;15.50;70.40;;;;;;5012711;28;20332;-78
2024/02/06 08:21:39;;;;;;;;;;;15.50;70.20;;;;;;5012545;28;19909;-75
2024/02/06 08:24:06;;;;;;;;;;;15.50;70.50;;;;;;5012654;28;19949;-74
2024/02/06 08:26:31;;;;;;;;;;;15.60;70.20;;;;;;5012680;28;19964;-74
2024/02/06 08:28:57;;;;;;;;;;;15.60;70.40;;;;;;5012655;28;19913;-72
2024/02/06 08:31:23;;;;;;;;;;;15.70;70.60;;;;;;5012440;28;19909;-75
2024/02/06 08:33:49;;;;;;;;;;;15.60;70.30;;;;;;5012437;28;20016;-75
2024/02/06 08:36:15;;;;;;;;;;;15.60;70.30;;;;;;5012294;28;19909;-74
2024/02/06 08:38:41;;;;;;;;;;;15.60;70.30;;;;;;5012643;28;20029;-75
2024/02/06 08:41:08;;;;;;;;;;;15.60;70.60;;;;;;5012950;28;19952;-75
2024/02/06 08:43:34;;;;;;;;;;;15.60;70.30;;;;;;5012337;28;19971;-75
2024/02/06 08:46:00;;;;;;;;;;;15.70;70.40;;;;;;5012630;28;20000;-75
2024/02/06 08:48:28;;;;;;;;;;;15.70;70.40;;;;;;5012600;28;19949;-75
2024/02/06 08:50:54;;;;;;;;;;;15.70;70.30;;;;;;5012321;28;19910;-75
2024/02/06 08:53:20;;;;;;;;;;;15.70;70.40;;;;;;5012541;28;19949;-75
2024/02/06 08:55:46;;;;;;;;;;;15.70;70.40;;;;;;5012174;28;20424;-75
2024/02/06 08:58:12;;;;;;;;;;;15.70;70.20;;;;;;5012178;28;20288;-75
2024/02/06 09:00:38;;;;;;;;;;;15.70;69.60;;;;;;5012464;28;19948;-75
2024/02/06 09:03:03;;;;;;;;;;;15.80;70.00;;;;;;5012436;28;20015;-75
2024/02/06 09:05:29;;;;;;;;;;;15.70;69.80;;;;;;5016158;28;19909;-75
2024/02/06 09:07:54;;;;;;;;;;;15.60;70.50;;;;;;5015988;28;19949;-75
2024/02/06 09:10:20;;;;;;;;;;;15.70;70.50;;;;;;5015975;28;20371;-75
2024/02/06 09:12:46;;;;;;;;;;;15.80;70.70;;;;;;5015789;28;19913;-74
2024/02/06 09:15:12;;;;;;;;;;;15.70;70.70;;;;;;5016013;28;19910;-75
2024/02/06 09:17:37;;;;;;;;;;;15.80;70.60;;;;;;5015797;28;19910;-75
2024/02/06 09:20:03;;;;;;;;;;;15.80;70.80;;;;;;5016048;28;19917;-75
2024/02/06 09:22:28;;;;;;;;;;;15.80;70.00;;;;;;5015803;28;20057;-76
2024/02/06 09:24:54;;;;;;;;;;;15.80;70.80;;;;;;5020519;28;20003;-72
2024/02/06 09:27:19;;;;;;;;;;;16.80;71.40;;;;;;5015643;28;19916;-75
2024/02/06 09:29:45;;;;;;;;;;;15.80;70.90;;;;;;5015772;28;19909;-74
2024/02/06 09:32:10;;;;;;;;;;;15.90;70.70;;;;;;5015423;28;19945;-75
2024/02/06 09:34:36;;;;;;;;;;;15.80;70.80;;;;;;5015340;28;19972;-75
2024/02/06 09:37:02;;;;;;;;;;;15.80;70.80;;;;;;5015593;28;20274;-75
2024/02/06 09:39:27;;;;;;;;;;;15.90;70.30;;;;;;5015289;28;19910;-76
2024/02/06 09:41:53;;;;;;;;;;;15.80;70.90;;;;;;5015158;28;19917;-75
2024/02/06 09:44:18;;;;;;;;;;;15.80;70.90;;;;;;5014382;28;19964;-73
2024/02/06 09:46:45;;;;;;;;;;;15.90;70.90;;;;;;5015111;28;19991;-73
2024/02/06 09:49:11;;;;;;;;;;;15.90;71.20;;;;;;5015119;28;19910;-73
2024/02/06 09:51:41;;;;;;;;;;;15.90;71.10;;;;;;5014973;28;19914;-74
2024/02/06 09:54:07;;;;;;;;;;;15.90;66.60;;;;;;5015342;28;19948;-74
2024/02/06 09:56:34;;;;;;;;;;;15.90;71.20;;;;;;5014968;28;19913;-74
2024/02/06 09:59:05;;;;;;;;;;;15.90;71.30;;;;;;5014982;28;19910;-75
2024/02/06 10:01:32;;;;;;;;;;;16.00;70.60;;;;;;5020946;28;19910;-73
2024/02/06 10:03:58;;;;;;;;;;;16.00;71.00;;;;;;5014637;28;19996;-74
2024/02/06 10:06:23;;;;;;;;;;;16.00;70.70;;;;;;5014845;28;19949;-74
2024/02/06 10:08:49;;;;;;;;;;;16.00;70.70;;;;;;5015016;28;19909;-75
2024/02/06 10:11:16;;;;;;;;;;;16.00;70.80;;;;;;5014849;28;20356;-75
2024/02/06 10:13:42;;;;;;;;;;;16.00;70.80;;;;;;5014664;28;19996;-74
2024/02/06 10:16:08;;;;;;;;;;;16.10;71.00;;;;;;5013565;28;19916;-73
2024/02/06 10:18:33;;;;;;;;;;;16.00;70.60;;;;;;5014860;28;19909;-75
2024/02/06 10:20:59;;;;;;;;;;;16.00;70.60;;;;;;5014502;28;20283;-77
2024/02/06 10:23:24;;;;;;;;;;;16.10;70.50;;;;;;5014449;28;19917;-77
2024/02/06 10:25:50;;;;;;;;;;;16.10;70.70;;;;;;5014289;28;19961;-73
2024/02/06 10:28:23;;;;;;;;;;;16.10;70.40;;;;;;5015453;28;20369;-74
2024/02/06 10:30:49;;;;;;;;;;;16.00;66.20;;;;;;5014596;28;19917;-73
2024/02/06 10:33:15;;;;;;;;;;;16.10;70.70;;;;;;5014526;28;20330;-72
2024/02/06 10:35:41;;;;;;;;;;;16.20;70.50;;;;;;5014234;28;19953;-71
2024/02/06 10:38:11;;;;;;;;;;;16.20;70.50;;;;;;5014440;28;19996;-71
2024/02/06 10:40:38;;;;;;;;;;;16.10;66.00;;;;;;5014424;28;19993;-72
2024/02/06 10:43:04;;;;;;;;;;;16.20;70.60;;;;;;5013988;28;19965;-72
2024/02/06 10:45:30;;;;;;;;;;;16.20;69.80;;;;;;5014017;28;19996;-72
2024/02/06 10:47:59;;;;;;;;;;;16.20;70.10;;;;;;5013833;28;20009;-72
2024/02/06 10:50:29;;;;;;;;;;;16.30;66.10;;;;;;5014315;28;19964;-73
2024/02/06 10:53:11;;;;;;;;;;;16.20;70.50;;;;;;5013832;28;19910;-71
2024/02/06 10:55:37;;;;;;;;;;;16.30;70.60;;;;;;5013892;28;19910;-71
2024/02/06 10:58:06;;;;;;;;;;;16.20;70.50;;;;;;5013744;28;19944;-72
2024/02/06 11:00:33;;;;;;;;;;;16.30;66.00;;;;;;5013839;28;20402;-71
2024/02/06 11:02:58;;;;;;;;;;;16.30;69.80;;;;;;5013475;28;19928;-71
2024/02/06 11:05:27;;;;;;;;;;;16.30;70.40;;;;;;5013622;28;19909;-72
2024/02/06 11:07:56;;;;;;;;;;;16.20;70.40;;;;;;5014137;28;19964;-80
2024/02/06 11:10:22;;;;;;;;;;;16.30;70.60;;;;;;5012345;28;19940;-71
2024/02/06 11:12:54;;;;;;;;;;;16.30;70.50;;;;;;5013487;28;19932;-72
2024/02/06 11:15:20;;;;;;;;;;;16.30;70.40;;;;;;5013518;28;19947;-75
2024/02/06 11:17:47;;;;;;;;;;;16.30;68.90;;;;;;5012214;28;20260;-70
2024/02/06 11:20:14;;;;;;;;;;;16.30;70.60;;;;;;5013407;28;19961;-71
2024/02/06 11:22:40;;;;;;;;;;;16.30;70.70;;;;;;5013357;28;19924;-72
2024/02/06 11:25:10;;;;;;;;;;;16.10;70.20;;;;;;5013341;28;19917;-72
2024/02/06 11:27:37;;;;;;;;;;;16.30;66.10;;;;;;5013146;28;19910;-72
2024/02/06 11:30:03;;;;;;;;;;;16.30;70.40;;;;;;5013285;28;20064;-71
2024/02/06 11:32:28;;;;;;;;;;;16.30;69.60;;;;;;5013301;28;19972;-72
2024/02/06 11:34:55;;;;;;;;;;;16.30;70.40;;;;;;5013090;28;20482;-72
2024/02/06 11:37:24;;;;;;;;;;;16.40;67.60;;;;;;5013135;28;19909;-71
2024/02/06 11:39:50;;;;;;;;;;;16.60;66.20;;;;;;5012750;28;20020;-71
2024/02/06 11:42:22;;;;;;;;;;;16.30;70.30;;;;;;5012688;28;20012;-71
2024/02/06 11:44:47;;;;;;;;;;;16.30;65.90;;;;;;5013053;28;19909;-71
2024/02/06 11:47:19;;;;;;;;;;;16.30;70.20;;;;;;5012304;28;19916;-71
2024/02/06 11:49:44;;;;;;;;;;;16.40;70.40;;;;;;5013084;28;20379;-71
2024/02/06 11:52:20;;;;;;;;;;;16.50;71.10;;;;;;5012907;28;19921;-71
2024/02/06 11:54:46;;;;;;;;;;;16.40;70.40;;;;;;5013805;28;19909;-71
2024/02/06 11:57:12;;;;;;;;;;;16.40;70.40;;;;;;5013102;28;19996;-72
2024/02/06 11:59:39;;;;;;;;;;;16.40;70.20;;;;;;5012829;28;20364;-76
2024/02/06 12:02:11;;;;;;;;;;;16.40;70.00;;;;;;5011364;28;19910;-71
2024/02/06 12:04:37;;;;;;;;;;;16.40;65.90;;;;;;5012637;28;19926;-70
2024/02/06 12:07:03;;;;;;;;;;;16.40;70.40;;;;;;5012796;28;19956;-71
2024/02/06 12:09:35;;;;;;;;;;;16.30;70.30;;;;;;5012767;28;20423;-70
2024/02/06 12:12:01;;;;;;;;;;;16.40;70.30;;;;;;5012766;28;19955;-71
2024/02/06 12:14:28;;;;;;;;;;;16.40;70.00;;;;;;5012672;28;19920;-71
2024/02/06 12:16:55;;;;;;;;;;;16.40;70.10;;;;;;5012607;28;19975;-70
2024/02/06 12:19:23;;;;;;;;;;;16.40;70.10;;;;;;5012658;28;19955;-72
2024/02/06 12:21:57;;;;;;;;;;;16.40;70.00;;;;;;5013121;28;20372;-70
2024/02/06 12:24:22;;;;;;;;;;;16.40;70.00;;;;;;5012598;28;19918;-71
2024/02/06 12:26:48;;;;;;;;;;;16.40;70.00;;;;;;5012519;28;19916;-70
2024/02/06 12:29:13;;;;;;;;;;;16.40;69.70;;;;;;5012431;28;19909;-70
2024/02/06 12:31:40;;;;;;;;;;;16.40;70.00;;;;;;5012488;28;19910;-71
2024/02/06 12:34:06;;;;;;;;;;;16.40;69.60;;;;;;5012408;28;20387;-71
2024/02/06 12:36:32;;;;;;;;;;;16.40;70.20;;;;;;5012378;28;19909;-70
2024/02/06 12:38:58;;;;;;;;;;;16.40;69.90;;;;;;5014797;28;19963;-70
2024/02/06 12:41:25;;;;;;;;;;;16.50;69.90;;;;;;5016255;28;20319;-71
2024/02/06 12:43:51;;;;;;;;;;;16.50;69.90;;;;;;5016544;28;19937;-70
2024/02/06 12:46:20;;;;;;;;;;;16.50;70.00;;;;;;5016316;28;19956;-70
2024/02/06 12:48:50;;;;;;;;;;;16.50;70.10;;;;;;5016323;28;20379;-70
2024/02/06 12:51:16;;;;;;;;;;;16.50;65.60;;;;;;5016717;28;19909;-71
2024/02/06 12:53:42;;;;;;;;;;;16.60;69.80;;;;;;5016245;28;19964;-70
2024/02/06 12:56:08;;;;;;;;;;;16.50;69.80;;;;;;5016439;28;19913;-70
2024/02/06 12:58:34;;;;;;;;;;;16.50;69.60;;;;;;5014813;28;19909;-71
2024/02/06 13:01:00;;;;;;;;;;;16.50;69.70;;;;;;5016144;28;20056;-70
2024/02/06 13:03:26;;;;;;;;;;;16.50;69.30;;;;;;5015632;28;20392;-71
2024/02/06 13:05:55;;;;;;;;;;;16.50;69.50;;;;;;5016002;28;20395;-70
2024/02/06 13:08:22;;;;;;;;;;;16.50;65.40;;;;;;5015924;28;19910;-71
2024/02/06 13:10:47;;;;;;;;;;;16.50;69.40;;;;;;5015821;28;19910;-70
2024/02/06 13:13:17;;;;;;;;;;;16.60;69.40;;;;;;5015743;28;20368;-70
2024/02/06 13:15:42;;;;;;;;;;;16.60;65.20;;;;;;5015711;28;19909;-71
2024/02/06 13:18:08;;;;;;;;;;;16.50;69.20;;;;;;5015763;28;19916;-70
2024/02/06 13:20:39;;;;;;;;;;;16.60;69.30;;;;;;5015746;28;20368;-70
2024/02/06 13:23:12;;;;;;;;;;;16.50;69.00;;;;;;5015658;28;19917;-70
2024/02/06 13:25:38;;;;;;;;;;;16.60;64.90;;;;;;5015632;28;19914;-70
2024/02/06 13:28:05;;;;;;;;;;;16.50;69.20;;;;;;5015877;28;19909;-70
2024/02/06 13:30:30;;;;;;;;;;;16.60;68.10;;;;;;5015503;28;19949;-70
2024/02/06 13:32:56;;;;;;;;;;;16.60;69.00;;;;;;5015534;28;19959;-70
2024/02/06 13:35:22;;;;;;;;;;;16.50;69.10;;;;;;5015479;28;19909;-71
2024/02/06 13:37:48;;;;;;;;;;;16.60;69.00;;;;;;5016200;28;19909;-70
2024/02/06 13:40:13;;;;;;;;;;;16.50;68.80;;;;;;5015512;28;19917;-70
2024/02/06 13:42:39;;;;;;;;;;;16.50;68.80;;;;;;5015578;28;20012;-70
2024/02/06 13:45:05;;;;;;;;;;;16.50;68.70;;;;;;5015304;28;19999;-70
2024/02/06 13:47:31;;;;;;;;;;;16.50;67.60;;;;;;5015407;28;19914;-69
2024/02/06 13:49:56;;;;;;;;;;;16.50;69.10;;;;;;5014972;28;19914;-70
2024/02/06 13:52:23;;;;;;;;;;;16.80;69.20;;;;;;5015227;28;20004;-70
2024/02/06 13:54:49;;;;;;;;;;;16.60;68.80;;;;;;5015062;28;19909;-70
2024/02/06 13:57:17;;;;;;;;;;;16.50;68.70;;;;;;5015014;28;19980;-70
2024/02/06 13:59:43;;;;;;;;;;;16.50;68.70;;;;;;5014876;28;20360;-70
2024/02/06 14:02:09;;;;;;;;;;;16.60;68.20;;;;;;5014844;28;19909;-70
2024/02/06 14:04:34;;;;;;;;;;;16.50;68.30;;;;;;5014700;28;19966;-70
2024/02/06 14:07:00;;;;;;;;;;;16.60;68.60;;;;;;5015178;28;20008;-70
2024/02/06 14:09:25;;;;;;;;;;;16.60;68.40;;;;;;5014745;28;19914;-70
2024/02/06 14:11:56;;;;;;;;;;;16.50;68.60;;;;;;5014623;28;20038;-70